Terminal Aerodrome Forecast
Issued by NWS Cleveland, OH

Home | Current Version | Previous Version | Graphics & Text | Print | Product List | Glossary Off
Versions: 1 2 3 4 5 6 7 8 9 10 11 12 13 14 15 16

135
FTUS41 KCLE 261730
TAFYNG
TAF
KYNG 261730Z 2618/2718 23010KT P6SM BKN035
     FM262000 22012G18KT P6SM SCT035
     FM270800 21007KT P6SM SCT040 OVC100
     FM271500 20007KT P6SM VCSH OVC040=

USA.gov is the U.S. government's official web portal to all federal, state and local government web resources and services.